Time;durP1;ratioP1;P1;durP2;ratioP2;P2;SDS_P1;SDS_P2;PMS_P1;PMS_P2;Temp;Humidity;BMP_temperature;BMP_pressure;BME280_temperature;BME280_humidity;BME280_pressure;Samples;Min_cycle;Max_cycle;Signal;HPM_P1;HPM_P2
2021/01/26 00:00:10;;;;;;;1.20;0.85;;;4.50;94.70;;;;;;5013846;28;20029;-74
2021/01/26 00:02:36;;;;;;;6.57;1.10;;;4.50;94.70;;;;;;5014414;28;20018;-73
2021/01/26 00:05:03;;;;;;;2.10;1.23;;;4.50;94.70;;;;;;4996632;28;20026;-73
2021/01/26 00:07:28;;;;;;;4.47;0.90;;;4.50;94.80;;;;;;4997232;28;20369;-73
2021/01/26 00:09:54;;;;;;;1.05;0.75;;;4.40;94.80;;;;;;5013843;28;20113;-73
2021/01/26 00:12:20;;;;;;;6.88;1.67;;;4.40;94.80;;;;;;5014602;28;20065;-73
2021/01/26 00:14:45;;;;;;;2.08;0.90;;;4.50;94.80;;;;;;5014907;28;20433;-73
2021/01/26 00:17:11;;;;;;;1.13;0.95;;;4.50;94.80;;;;;;5014470;28;20026;-73
2021/01/26 00:19:37;;;;;;;0.95;0.70;;;4.50;94.70;;;;;;5014936;28;20033;-73
2021/01/26 00:22:02;;;;;;;1.67;0.82;;;4.50;94.70;;;;;;5015008;28;20034;-74
2021/01/26 00:24:28;;;;;;;3.20;0.90;;;4.60;94.70;;;;;;4996593;28;20116;-73
2021/01/26 00:26:54;;;;;;;2.30;1.10;;;4.60;94.70;;;;;;5014852;28;20072;-73
2021/01/26 00:29:19;;;;;;;1.20;1.08;;;4.50;94.70;;;;;;5014338;28;20084;-72
2021/01/26 00:31:45;;;;;;;1.10;1.00;;;4.60;94.70;;;;;;5014584;28;20476;-72
2021/01/26 00:34:10;;;;;;;1.05;0.98;;;4.50;94.70;;;;;;4996542;28;20029;-73
2021/01/26 00:36:36;;;;;;;1.27;0.93;;;4.50;94.70;;;;;;4997045;28;20127;-73
2021/01/26 00:39:03;;;;;;;1.60;1.33;;;4.50;94.70;;;;;;5014122;28;20058;-73
2021/01/26 00:41:29;;;;;;;2.05;0.98;;;4.50;95.10;;;;;;4996440;28;20038;-72
2021/01/26 00:43:54;;;;;;;4.03;1.17;;;4.50;94.80;;;;;;4996951;28;20022;-72
2021/01/26 00:46:20;;;;;;;1.60;0.98;;;4.50;94.80;;;;;;5013928;28;20450;-72
2021/01/26 00:48:45;;;;;;;1.40;1.00;;;4.50;94.80;;;;;;5014180;28;20085;-74
2021/01/26 00:51:11;;;;;;;1.52;0.73;;;4.50;94.70;;;;;;5013978;28;20462;-73
2021/01/26 00:53:37;;;;;;;4.93;1.15;;;4.50;94.80;;;;;;4996835;28;20030;-73
2021/01/26 00:56:03;;;;;;;1.65;1.15;;;4.40;94.80;;;;;;5014364;28;20105;-73
2021/01/26 00:58:29;;;;;;;3.10;1.20;;;4.40;94.80;;;;;;4995925;28;20021;-73
2021/01/26 01:00:54;;;;;;;2.13;0.80;;;4.40;94.80;;;;;;4996593;28;20052;-73
2021/01/26 01:03:20;;;;;;;2.35;1.08;;;4.40;94.80;;;;;;4995951;28;20049;-73
2021/01/26 01:05:46;;;;;;;1.67;0.93;;;4.40;94.80;;;;;;5014300;28;20382;-73
2021/01/26 01:08:12;;;;;;;0.70;0.70;;;4.40;94.80;;;;;;5013715;28;20543;-73
2021/01/26 01:10:38;;;;;;;0.65;0.65;;;4.40;94.90;;;;;;5014036;28;20037;-73
2021/01/26 01:13:09;;;;;;;2.45;1.00;;;4.40;94.80;;;;;;5014054;28;20557;-73
2021/01/26 01:15:36;;;;;;;1.38;0.70;;;4.40;94.80;;;;;;5014210;28;20062;-73
2021/01/26 01:18:02;;;;;;;0.73;0.60;;;4.40;94.80;;;;;;5013525;28;20034;-73
2021/01/26 01:20:29;;;;;;;1.65;1.02;;;4.30;94.80;;;;;;5013290;28;20041;-73
2021/01/26 01:22:54;;;;;;;0.52;0.52;;;4.30;94.80;;;;;;5013811;28;20028;-73
2021/01/26 01:25:21;;;;;;;1.33;1.00;;;4.30;94.80;;;;;;5013133;28;20370;-73
2021/01/26 01:27:47;;;;;;;0.52;0.52;;;4.30;94.90;;;;;;4996080;28;20585;-73
2021/01/26 01:30:16;;;;;;;2.50;0.85;;;4.30;94.90;;;;;;5013115;28;20029;-73
2021/01/26 01:32:42;;;;;;;1.55;1.05;;;4.30;94.90;;;;;;5013771;28;20049;-72
2021/01/26 01:35:10;;;;;;;2.25;1.05;;;4.30;94.90;;;;;;5013937;28;20100;-73
2021/01/26 01:37:35;;;;;;;1.70;1.27;;;4.30;94.90;;;;;;4996205;28;20417;-72
2021/01/26 01:40:02;;;;;;;3.97;1.50;;;4.30;95.00;;;;;;5013056;28;20053;-73
2021/01/26 01:42:28;;;;;;;3.90;1.35;;;4.30;94.90;;;;;;5013241;28;20014;-73
2021/01/26 01:44:54;;;;;;;1.73;1.40;;;4.40;94.90;;;;;;5013754;28;20022;-73
2021/01/26 01:47:29;;;;;;;1.65;1.27;;;4.40;94.90;;;;;;5012536;28;20105;-73
2021/01/26 01:49:59;;;;;;;2.17;1.25;;;4.40;94.80;;;;;;5013053;28;20030;-73
2021/01/26 01:52:30;;;;;;;1.60;1.00;;;4.40;94.80;;;;;;4995158;28;20018;-73
2021/01/26 01:55:00;;;;;;;;;;;4.40;94.80;;;;;;4996180;28;20014;-73
2021/01/26 01:57:30;;;;;;;0.90;0.90;;;4.40;94.80;;;;;;5012705;28;19951;-73
2021/01/26 02:00:06;;;;;;;1.65;0.70;;;4.40;94.80;;;;;;5012933;28;20466;-72
2021/01/26 02:02:32;;;;;;;1.15;0.90;;;4.40;94.80;;;;;;5012543;28;20484;-72
2021/01/26 02:05:01;;;;;;;0.57;0.57;;;4.40;94.80;;;;;;5012826;28;20077;-72
2021/01/26 02:07:27;;;;;;;1.08;0.85;;;4.40;94.80;;;;;;5012359;28;20026;-73
2021/01/26 02:09:53;;;;;;;4.53;1.25;;;4.40;94.70;;;;;;5013196;28;20128;-73
2021/01/26 02:12:19;;;;;;;4.03;1.10;;;4.50;94.70;;;;;;4994653;28;20215;-73
2021/01/26 02:14:51;;;;;;;0.75;0.57;;;4.50;94.70;;;;;;5012594;28;20022;-73
2021/01/26 02:18:03;;;;;;;0.50;0.50;;;4.50;94.60;;;;;;5012354;28;20026;-73
2021/01/26 02:20:56;;;;;;;0.70;0.70;;;4.60;94.60;;;;;;5012299;28;20415;-73
2021/01/26 02:23:53;;;;;;;0.65;0.50;;;4.60;94.50;;;;;;5012187;28;20026;-73
2021/01/26 02:26:23;;;;;;;1.00;0.77;;;4.50;94.40;;;;;;4994527;28;20025;-73
2021/01/26 02:28:58;;;;;;;0.85;0.47;;;4.50;94.50;;;;;;4995029;28;20033;-74
2021/01/26 02:31:32;;;;;;;1.05;0.77;;;4.40;94.50;;;;;;5012006;28;20018;-73
2021/01/26 02:33:58;;;;;;;0.70;0.70;;;4.50;94.50;;;;;;5012638;28;20026;-73
2021/01/26 02:36:48;;;;;;;2.88;0.60;;;4.40;94.50;;;;;;5011932;28;20022;-73
2021/01/26 02:39:28;;;;;;;0.40;0.40;;;4.40;94.50;;;;;;5012050;28;20058;-75
2021/01/26 02:42:18;;;;;;;1.13;0.90;;;4.50;94.50;;;;;;5012295;28;20049;-73
2021/01/26 02:45:05;;;;;;;2.25;0.75;;;4.50;94.50;;;;;;5012471;28;20489;-73
2021/01/26 02:47:52;;;;;;;0.45;0.45;;;4.40;94.50;;;;;;5011482;28;20466;-74
2021/01/26 02:50:47;;;;;;;0.73;0.60;;;4.40;94.50;;;;;;4994162;28;20022;-74
2021/01/26 02:53:35;;;;;;;1.35;0.85;;;4.40;94.50;;;;;;5011958;28;20427;-73
2021/01/26 02:56:14;;;;;;;2.17;0.80;;;4.40;94.50;;;;;;4994677;28;20096;-73
2021/01/26 02:59:02;;;;;;;2.33;0.63;;;4.50;94.50;;;;;;5011613;28;20030;-73
2021/01/26 03:01:35;;;;;;;0.70;0.60;;;4.50;94.50;;;;;;4994031;28;20493;-73
2021/01/26 03:04:12;;;;;;;0.88;0.57;;;4.60;94.40;;;;;;5012461;28;20088;-73
2021/01/26 03:06:43;;;;;;;1.35;0.60;;;4.60;94.40;;;;;;4994043;28;20018;-73
2021/01/26 03:09:14;;;;;;;0.50;0.50;;;4.60;94.30;;;;;;5012097;28;20053;-73
2021/01/26 03:11:57;;;;;;;1.50;0.70;;;4.60;94.30;;;;;;4993931;28;20022;-72
2021/01/26 03:14:29;;;;;;;0.38;0.38;;;4.70;94.30;;;;;;5011303;28;20073;-74
2021/01/26 03:17:14;;;;;;;0.60;0.60;;;4.70;94.30;;;;;;4994390;28;20018;-73
2021/01/26 03:19:43;;;;;;;0.40;0.40;;;4.70;94.30;;;;;;4993665;28;20117;-73
2021/01/26 03:22:10;;;;;;;0.60;0.60;;;4.70;94.20;;;;;;4994394;28;20065;-73
2021/01/26 03:24:40;;;;;;;1.45;0.50;;;4.80;94.20;;;;;;4993667;28;20426;-73
2021/01/26 03:27:13;;;;;;;1.30;1.23;;;4.80;94.20;;;;;;5011884;28;20034;-73
2021/01/26 03:29:42;;;;;;;0.90;0.73;;;4.70;94.10;;;;;;4993740;28;20049;-73
2021/01/26 03:32:12;;;;;;;1.58;0.65;;;4.70;94.20;;;;;;5012031;28;20081;-73
2021/01/26 03:34:38;;;;;;;4.07;1.02;;;4.60;94.40;;;;;;4993618;28;20014;-73
2021/01/26 03:37:05;;;;;;;3.72;0.70;;;4.50;94.40;;;;;;4994113;28;20033;-73
2021/01/26 03:39:31;;;;;;;2.22;0.63;;;4.40;94.50;;;;;;5001310;28;20049;-73
2021/01/26 03:41:58;;;;;;;9.30;0.60;;;4.40;94.60;;;;;;5011737;28;20075;-73
2021/01/26 03:44:24;;;;;;;0.70;0.60;;;4.30;94.70;;;;;;5009279;28;20049;-72
2021/01/26 03:47:10;;;;;;;1.20;0.70;;;4.30;94.80;;;;;;5010859;28;20461;-73
2021/01/26 03:50:07;;;;;;;0.60;0.60;;;4.20;94.80;;;;;;5009218;28;20038;-73
2021/01/26 03:52:54;;;;;;;0.50;0.50;;;4.20;94.80;;;;;;4982731;28;20370;-73
2021/01/26 03:55:43;;;;;;;1.05;0.80;;;4.20;94.80;;;;;;5010460;28;20022;-74
2021/01/26 03:58:42;;;;;;;1.65;0.50;;;4.30;94.80;;;;;;5011012;28;20470;-74
2021/01/26 04:01:25;;;;;;;1.33;0.68;;;4.30;94.70;;;;;;5011068;28;20022;-73
2021/01/26 04:04:04;;;;;;;1.13;0.60;;;4.30;94.70;;;;;;5012626;28;20028;-73
2021/01/26 04:06:50;;;;;;;3.35;0.70;;;4.40;94.60;;;;;;5014085;28;20025;-73
2021/01/26 04:09:23;;;;;;;2.00;0.60;;;4.40;94.50;;;;;;5015640;28;20465;-73
2021/01/26 04:12:02;;;;;;;0.50;0.50;;;4.40;94.60;;;;;;5015522;28;20018;-73
2021/01/26 04:14:32;;;;;;;0.45;0.45;;;4.40;94.60;;;;;;5014399;28;20064;-73
2021/01/26 04:17:18;;;;;;;2.28;0.70;;;4.40;94.60;;;;;;5015247;28;20027;-73
2021/01/26 04:19:57;;;;;;;2.55;0.70;;;4.40;94.50;;;;;;5013201;28;20034;-73
2021/01/26 04:22:24;;;;;;;1.38;0.75;;;4.40;94.50;;;;;;5014725;28;20026;-73
2021/01/26 04:24:49;;;;;;;0.50;0.50;;;4.40;94.50;;;;;;5015766;28;20432;-73
2021/01/26 04:27:20;;;;;;;3.15;0.60;;;4.40;94.50;;;;;;5034342;28;20029;-73
2021/01/26 04:29:46;;;;;;;4.90;0.70;;;4.50;94.50;;;;;;5034707;28;20075;-73
2021/01/26 04:32:14;;;;;;;0.73;0.70;;;4.50;94.50;;;;;;5034700;28;20480;-73
2021/01/26 04:34:39;;;;;;;0.70;0.70;;;4.50;94.40;;;;;;5033587;28;20425;-73
2021/01/26 04:37:05;;;;;;;0.90;0.75;;;4.50;94.40;;;;;;5034553;28;20025;-73
2021/01/26 04:39:31;;;;;;;2.70;1.25;;;4.50;94.40;;;;;;5031907;28;20107;-73
2021/01/26 04:42:21;;;;;;;0.43;0.43;;;4.50;94.40;;;;;;5034670;28;20025;-73
2021/01/26 04:45:12;;;;;;;0.70;0.70;;;4.50;94.50;;;;;;5033163;28;20377;-72
2021/01/26 04:47:42;;;;;;;0.40;0.40;;;4.50;94.50;;;;;;5033778;28;20114;-73
2021/01/26 04:50:21;;;;;;;4.38;0.88;;;4.50;94.60;;;;;;5032965;28;20453;-73
2021/01/26 04:52:59;;;;;;;0.65;0.60;;;4.50;94.60;;;;;;5032174;28;20034;-72
2021/01/26 04:55:48;;;;;;;0.85;0.45;;;4.50;94.50;;;;;;5028449;28;20022;-72
2021/01/26 04:58:51;;;;;;;0.65;0.65;;;4.50;94.50;;;;;;5022164;28;20107;-72
2021/01/26 05:01:38;;;;;;;0.45;0.45;;;4.60;94.50;;;;;;5024046;28;20057;-73
2021/01/26 05:04:06;;;;;;;0.40;0.40;;;4.50;94.60;;;;;;5024778;28;20462;-74
2021/01/26 05:06:39;;;;;;;1.00;0.77;;;4.50;94.60;;;;;;5024241;28;20018;-72
2021/01/26 05:09:11;;;;;;;0.80;0.57;;;4.50;94.60;;;;;;5022478;28;20467;-72
2021/01/26 05:11:41;;;;;;;1.15;1.08;;;4.50;94.60;;;;;;5022464;28;20112;-72
2021/01/26 05:14:22;;;;;;;1.48;0.90;;;4.50;94.60;;;;;;5021366;28;20022;-73
2021/01/26 05:17:00;;;;;;;4.07;0.70;;;4.60;94.60;;;;;;5032810;28;20021;-73
2021/01/26 05:19:35;;;;;;;0.65;0.65;;;4.60;94.50;;;;;;5033205;28;20017;-72
2021/01/26 05:22:19;;;;;;;1.05;0.40;;;4.70;94.50;;;;;;5033651;28;20088;-73
2021/01/26 05:24:58;;;;;;;2.53;0.70;;;4.70;94.50;;;;;;5031701;28;20311;-73
2021/01/26 05:27:23;;;;;;;3.78;0.70;;;4.80;94.40;;;;;;5033512;28;20029;-73
2021/01/26 05:29:50;;;;;;;2.28;0.77;;;4.80;94.40;;;;;;5032676;28;20072;-72
2021/01/26 05:32:15;;;;;;;1.35;0.65;;;4.80;94.40;;;;;;5030764;28;20500;-76
2021/01/26 05:34:42;;;;;;;1.67;0.60;;;4.80;94.40;;;;;;5030401;28;20065;-79
2021/01/26 05:37:13;;;;;;;5.88;0.70;;;4.80;94.40;;;;;;5032000;28;20033;-77
2021/01/26 05:39:39;;;;;;;;;;;4.80;94.50;;;;;;5030073;28;20041;-78
2021/01/26 05:42:05;;;;;;;0.65;0.65;;;4.70;94.40;;;;;;5031357;28;19975;-76
2021/01/26 05:44:33;;;;;;;0.60;0.57;;;4.80;94.40;;;;;;5029366;28;20025;-78
2021/01/26 05:47:24;;;;;;;1.95;0.60;;;4.80;94.40;;;;;;5029688;28;20025;-78
2021/01/26 05:49:50;;;;;;;0.93;0.70;;;4.90;94.40;;;;;;5030748;28;20104;-77
2021/01/26 05:52:17;;;;;;;0.70;0.60;;;4.80;94.40;;;;;;5029829;28;20112;-78
2021/01/26 05:54:52;;;;;;;2.75;0.88;;;4.90;94.40;;;;;;5030282;28;20061;-77
2021/01/26 05:57:44;;;;;;;0.40;0.40;;;4.90;94.40;;;;;;5029751;28;20021;-79
2021/01/26 06:00:21;;;;;;;0.90;0.70;;;4.90;94.30;;;;;;5026681;28;20052;-79
2021/01/26 06:02:48;;;;;;;1.13;0.52;;;4.90;94.40;;;;;;5029127;28;20076;-79
2021/01/26 06:05:21;;;;;;;0.63;0.63;;;4.90;94.40;;;;;;5030999;28;20032;-77
2021/01/26 06:08:07;;;;;;;2.65;0.75;;;4.90;94.50;;;;;;5031140;28;20076;-73
2021/01/26 06:10:34;;;;;;;1.10;0.88;;;4.90;94.50;;;;;;5031105;28;20034;-73
2021/01/26 06:13:02;;;;;;;0.45;0.45;;;4.80;94.50;;;;;;5032579;28;20030;-74
2021/01/26 06:15:35;;;;;;;0.80;0.80;;;4.80;94.50;;;;;;5030267;28;20034;-74
2021/01/26 06:18:17;;;;;;;0.63;0.50;;;4.80;94.50;;;;;;5031325;28;20022;-74
2021/01/26 06:20:44;;;;;;;0.77;0.73;;;4.80;94.60;;;;;;5032222;28;20041;-74
2021/01/26 06:23:14;;;;;;;1.73;0.82;;;4.80;94.60;;;;;;5032603;28;20032;-74
2021/01/26 06:25:41;;;;;;;0.60;0.60;;;4.80;94.60;;;;;;5030569;28;20075;-74
2021/01/26 06:28:14;;;;;;;0.88;0.60;;;4.80;94.60;;;;;;5032314;28;20048;-74
2021/01/26 06:30:49;;;;;;;1.08;0.73;;;4.80;94.60;;;;;;5031486;28;20029;-73
2021/01/26 06:33:34;;;;;;;0.50;0.50;;;4.80;94.60;;;;;;5032304;28;20382;-73
2021/01/26 06:36:11;;;;;;;0.93;0.80;;;4.80;94.60;;;;;;5032323;28;20026;-73
2021/01/26 06:39:24;;;;;;;2.67;0.68;;;4.90;94.60;;;;;;5031469;28;20025;-73
2021/01/26 06:42:21;;;;;;;2.25;0.60;;;4.90;94.50;;;;;;4995185;28;20099;-73
2021/01/26 06:45:31;;;;;;;0.40;0.40;;;4.90;94.40;;;;;;5031533;28;20171;-73
2021/01/26 06:48:22;;;;;;;0.93;0.60;;;4.90;94.30;;;;;;5014455;28;20021;-75
2021/01/26 06:51:11;;;;;;;0.60;0.60;;;5.00;94.40;;;;;;5031542;28;20025;-73
2021/01/26 06:53:55;;;;;;;0.45;0.45;;;5.00;94.40;;;;;;5013455;28;20033;-75
2021/01/26 06:56:36;;;;;;;1.00;0.55;;;5.00;94.40;;;;;;5014309;28;20037;-74
2021/01/26 06:59:16;;;;;;;1.48;0.60;;;5.00;94.40;;;;;;5032105;28;20029;-74
2021/01/26 07:02:20;;;;;;;0.50;0.50;;;4.90;94.40;;;;;;5031434;28;20037;-75
2021/01/26 07:05:10;;;;;;;0.50;0.50;;;5.00;94.40;;;;;;5031017;28;20469;-73
2021/01/26 07:07:59;;;;;;;0.60;0.60;;;5.00;94.40;;;;;;5031267;28;20031;-74
2021/01/26 07:10:47;;;;;;;3.50;0.70;;;5.00;94.30;;;;;;5031529;28;20037;-74
2021/01/26 07:13:24;;;;;;;0.55;0.55;;;5.00;94.30;;;;;;5031620;28;20029;-73
2021/01/26 07:16:00;;;;;;;0.70;0.70;;;5.10;94.30;;;;;;5031160;28;20021;-73
2021/01/26 07:18:35;;;;;;;3.03;0.60;;;5.00;94.30;;;;;;5031494;28;20029;-72
2021/01/26 07:21:15;;;;;;;0.45;0.45;;;5.00;94.40;;;;;;5031792;28;20119;-74
2021/01/26 07:24:05;;;;;;;1.58;1.08;;;5.00;94.30;;;;;;5031049;28;20022;-74
2021/01/26 07:26:56;;;;;;;1.40;0.60;;;5.10;94.30;;;;;;5031813;28;20018;-74
2021/01/26 07:29:28;;;;;;;;;;;5.10;94.30;;;;;;5014468;28;20125;-73
2021/01/26 07:32:03;;;;;;;0.47;0.40;;;5.00;94.30;;;;;;5013249;28;19905;-74
2021/01/26 07:34:36;;;;;;;10.40;1.27;;;5.00;94.30;;;;;;5031317;28;20029;-74
2021/01/26 07:37:19;;;;;;;0.50;0.50;;;5.00;94.30;;;;;;5031609;28;20025;-74
2021/01/26 07:39:54;;;;;;;2.53;1.02;;;5.10;94.30;;;;;;5033835;28;20045;-74
2021/01/26 07:42:24;;;;;;;1.67;0.82;;;5.10;94.30;;;;;;5017712;28;20105;-74
2021/01/26 07:45:22;;;;;;;2.40;0.70;;;5.10;94.30;;;;;;5035247;28;20079;-74
2021/01/26 07:48:08;;;;;;;3.60;0.63;;;5.10;94.30;;;;;;5034888;28;20028;-74
2021/01/26 07:50:44;;;;;;;1.88;0.50;;;5.10;94.20;;;;;;5034361;28;20040;-73
2021/01/26 07:53:39;;;;;;;0.70;0.70;;;5.10;94.30;;;;;;5035451;28;20022;-74
2021/01/26 07:56:04;;;;;;;1.05;0.82;;;5.00;94.30;;;;;;4999451;28;20061;-74
2021/01/26 07:58:31;;;;;;;0.57;0.45;;;5.00;94.40;;;;;;5034841;28;20029;-74
2021/01/26 08:00:59;;;;;;;0.63;0.63;;;5.00;94.40;;;;;;5034855;28;20073;-73
2021/01/26 08:03:27;;;;;;;0.75;0.63;;;5.00;94.40;;;;;;5017266;28;20080;-73
2021/01/26 08:05:55;;;;;;;0.52;0.52;;;5.00;94.40;;;;;;5034525;28;20036;-74
2021/01/26 08:08:34;;;;;;;0.47;0.47;;;5.10;94.40;;;;;;5035061;28;20025;-74
2021/01/26 08:11:25;;;;;;;1.25;0.50;;;5.10;94.30;;;;;;5034201;28;20100;-74
2021/01/26 08:14:00;;;;;;;0.52;0.50;;;5.10;94.30;;;;;;5034473;28;20065;-75
2021/01/26 08:16:44;;;;;;;1.13;0.80;;;5.00;94.40;;;;;;5034930;28;20017;-74
2021/01/26 08:19:24;;;;;;;0.95;0.70;;;5.00;94.40;;;;;;5034654;28;20462;-75
2021/01/26 08:21:51;;;;;;;4.95;1.67;;;4.90;94.50;;;;;;5016551;28;20377;-74
2021/01/26 08:24:22;;;;;;;0.50;0.50;;;4.90;94.50;;;;;;5034929;28;20022;-73
2021/01/26 08:26:50;;;;;;;1.20;0.60;;;4.90;94.50;;;;;;5034098;28;20057;-74
2021/01/26 08:29:53;;;;;;;0.90;0.60;;;4.90;94.50;;;;;;5017047;28;20029;-75
2021/01/26 08:32:27;;;;;;;0.47;0.47;;;4.90;94.50;;;;;;4937956;29;20027;-75
2021/01/26 08:35:36;;;;;;;0.65;0.57;;;4.90;94.50;;;;;;5005326;28;20515;-74
2021/01/26 08:38:03;;;;;;;0.73;0.50;;;4.90;94.40;;;;;;5034075;28;20033;-74
2021/01/26 08:40:29;;;;;;;0.60;0.60;;;4.90;94.80;;;;;;5034274;28;20096;-75
2021/01/26 08:42:57;;;;;;;2.20;0.82;;;4.90;94.50;;;;;;5015575;28;20064;-75
2021/01/26 08:45:25;;;;;;;0.85;0.52;;;5.00;94.50;;;;;;5034394;28;20053;-74
2021/01/26 08:47:59;;;;;;;1.00;0.50;;;5.00;94.40;;;;;;5016122;28;20041;-75
2021/01/26 08:50:42;;;;;;;1.55;1.45;;;5.10;94.40;;;;;;5015182;28;20017;-74
2021/01/26 08:53:29;;;;;;;1.05;0.95;;;5.20;94.30;;;;;;5034187;28;20025;-75
2021/01/26 08:56:00;;;;;;;1.95;1.00;;;5.20;94.20;;;;;;5033197;28;20033;-74
2021/01/26 08:59:02;;;;;;;0.50;0.50;;;5.30;94.10;;;;;;5016230;28;20485;-75
2021/01/26 09:01:36;;;;;;;0.63;0.60;;;5.30;94.00;;;;;;4953730;29;20043;-75
2021/01/26 09:04:13;;;;;;;0.65;0.60;;;5.40;94.00;;;;;;5004167;28;20249;-73
2021/01/26 09:06:39;;;;;;;2.83;0.98;;;5.40;94.00;;;;;;5015964;28;20053;-73
2021/01/26 09:09:21;;;;;;;0.60;0.60;;;5.50;94.00;;;;;;5015421;28;20084;-73
2021/01/26 09:11:49;;;;;;;0.57;0.50;;;5.50;93.90;;;;;;5015470;28;20113;-73
2021/01/26 09:15:02;;;;;;;0.73;0.73;;;5.50;93.80;;;;;;5033658;28;20021;-73
2021/01/26 09:17:32;;;;;;;0.60;0.60;;;5.60;93.80;;;;;;4953141;29;20050;-73
2021/01/26 09:20:20;;;;;;;0.95;0.60;;;5.60;93.70;;;;;;5018746;28;20134;-73
2021/01/26 09:22:47;;;;;;;0.52;0.52;;;5.70;93.70;;;;;;5033069;28;20057;-74
2021/01/26 09:25:23;;;;;;;1.40;0.70;;;5.60;93.70;;;;;;5033850;28;20026;-73
2021/01/26 09:28:07;;;;;;;0.68;0.68;;;5.60;93.80;;;;;;5032928;28;20022;-74
2021/01/26 09:30:36;;;;;;;0.60;0.60;;;5.60;93.80;;;;;;5033170;28;20040;-74
2021/01/26 09:33:26;;;;;;;0.55;0.40;;;5.70;93.80;;;;;;5015102;28;20109;-74
2021/01/26 09:35:54;;;;;;;0.50;0.50;;;5.70;93.80;;;;;;5015048;28;20025;-74
2021/01/26 09:38:24;;;;;;;1.33;0.77;;;5.80;93.70;;;;;;5032803;28;20405;-74
2021/01/26 09:41:12;;;;;;;2.25;0.98;;;5.80;93.70;;;;;;5032591;28;20037;-73
2021/01/26 09:43:44;;;;;;;0.65;0.52;;;5.90;93.60;;;;;;5033178;28;20071;-74
2021/01/26 09:46:13;;;;;;;0.95;0.50;;;5.90;93.50;;;;;;5033128;28;20413;-73
2021/01/26 09:48:40;;;;;;;2.40;1.20;;;5.90;93.50;;;;;;5033720;28;20025;-73
2021/01/26 09:51:18;;;;;;;0.45;0.45;;;5.90;93.50;;;;;;5032414;28;20103;-74
2021/01/26 09:53:46;;;;;;;0.88;0.50;;;5.90;93.60;;;;;;5015162;28;20025;-74
2021/01/26 09:56:17;;;;;;;1.08;0.73;;;5.90;93.60;;;;;;5033079;28;20025;-74
2021/01/26 09:58:45;;;;;;;0.40;0.40;;;5.90;93.50;;;;;;5015011;28;20152;-74
2021/01/26 10:01:13;;;;;;;0.60;0.60;;;5.90;93.60;;;;;;5032042;28;20017;-74
2021/01/26 10:03:39;;;;;;;0.50;0.50;;;5.80;93.60;;;;;;5033070;28;20029;-73
2021/01/26 10:06:05;;;;;;;1.48;0.70;;;5.80;93.80;;;;;;5032398;28;20029;-74
2021/01/26 10:08:33;;;;;;;1.02;1.02;;;5.80;93.80;;;;;;5032440;28;20021;-74
2021/01/26 10:11:10;;;;;;;0.50;0.50;;;5.70;93.90;;;;;;5032039;28;20025;-74
2021/01/26 10:13:37;;;;;;;0.50;0.50;;;5.80;93.90;;;;;;5032649;28;20025;-74
2021/01/26 10:16:30;;;;;;;0.80;0.80;;;5.80;94.10;;;;;;5014097;28;20160;-74
2021/01/26 10:18:58;;;;;;;1.10;0.60;;;5.80;93.80;;;;;;5031872;28;20527;-74
2021/01/26 10:21:30;;;;;;;7.95;0.90;;;5.90;93.80;;;;;;5014570;28;20063;-74
2021/01/26 10:24:02;;;;;;;1.02;0.57;;;5.90;93.80;;;;;;5031605;28;20025;-74
2021/01/26 10:26:31;;;;;;;0.80;0.77;;;5.90;93.80;;;;;;5032337;28;20022;-74
2021/01/26 10:29:17;;;;;;;0.90;0.60;;;6.00;94.00;;;;;;5031408;28;20462;-74
2021/01/26 10:31:55;;;;;;;1.27;0.80;;;5.90;93.70;;;;;;5013997;28;20361;-74
2021/01/26 10:34:35;;;;;;;0.65;0.65;;;6.00;93.80;;;;;;5031960;28;20033;-74
2021/01/26 10:37:23;;;;;;;0.73;0.63;;;6.00;93.70;;;;;;5013685;28;20263;-74
2021/01/26 10:40:12;;;;;;;0.60;0.60;;;6.00;93.60;;;;;;5031128;28;20490;-76
2021/01/26 10:42:45;;;;;;;0.90;0.60;;;6.10;93.60;;;;;;5001996;28;20478;-74
2021/01/26 10:45:12;;;;;;;0.77;0.60;;;6.10;93.60;;;;;;5031586;28;20044;-74
2021/01/26 10:47:40;;;;;;;0.73;0.65;;;6.20;93.60;;;;;;5032415;28;20021;-74
2021/01/26 10:50:25;;;;;;;0.65;0.65;;;6.20;93.50;;;;;;5031615;28;20080;-74
2021/01/26 10:52:53;;;;;;;0.75;0.63;;;6.20;93.50;;;;;;5013615;28;20028;-75
2021/01/26 10:55:20;;;;;;;0.80;0.80;;;6.30;93.50;;;;;;5031962;28;20521;-74
2021/01/26 10:57:47;;;;;;;2.65;0.63;;;6.30;93.50;;;;;;5014129;28;20053;-74
2021/01/26 11:00:17;;;;;;;0.63;0.60;;;6.30;93.50;;;;;;5031013;28;20029;-74
2021/01/26 11:02:42;;;;;;;0.63;0.60;;;6.30;93.40;;;;;;5014038;28;20032;-74
2021/01/26 11:05:10;;;;;;;0.30;0.30;;;6.40;93.50;;;;;;5031074;28;20022;-74
2021/01/26 11:07:36;;;;;;;0.95;0.82;;;6.40;93.40;;;;;;5013935;28;20522;-74
2021/01/26 11:10:07;;;;;;;1.38;0.77;;;6.50;93.40;;;;;;5030798;28;20059;-74
2021/01/26 11:12:34;;;;;;;6.50;0.80;;;6.60;93.30;;;;;;5031140;28;20073;-74
2021/01/26 11:14:59;;;;;;;0.80;0.80;;;6.60;93.30;;;;;;5030845;28;20066;-74
2021/01/26 11:17:25;;;;;;;1.10;0.50;;;6.60;93.20;;;;;;5031710;28;20032;-74
2021/01/26 11:19:52;;;;;;;1.05;0.65;;;6.70;93.20;;;;;;5031587;28;20026;-74
2021/01/26 11:22:18;;;;;;;0.85;0.70;;;6.70;93.10;;;;;;5031487;28;20025;-74
2021/01/26 11:24:44;;;;;;;0.82;0.73;;;6.80;93.10;;;;;;5031718;28;20033;-74
2021/01/26 11:27:10;;;;;;;0.57;0.57;;;6.90;93.10;;;;;;5030839;28;20021;-74
2021/01/26 11:29:36;;;;;;;0.75;0.70;;;6.90;93.00;;;;;;5031313;28;20112;-74
2021/01/26 11:32:03;;;;;;;0.75;0.73;;;6.90;93.00;;;;;;5013133;28;20132;-74
2021/01/26 11:34:29;;;;;;;0.90;0.50;;;6.90;93.00;;;;;;5031426;28;20077;-74
2021/01/26 11:36:55;;;;;;;1.13;0.63;;;6.90;93.00;;;;;;5030690;28;20428;-73
2021/01/26 11:39:20;;;;;;;1.65;0.60;;;7.00;93.00;;;;;;5031184;28;20096;-73
2021/01/26 11:41:46;;;;;;;1.15;0.70;;;7.00;92.90;;;;;;5031464;28;20025;-74
2021/01/26 11:44:12;;;;;;;0.50;0.50;;;7.00;92.80;;;;;;5030577;28;20029;-74
2021/01/26 11:46:38;;;;;;;0.80;0.50;;;7.10;92.80;;;;;;5031471;28;20029;-75
2021/01/26 11:49:03;;;;;;;0.88;0.88;;;7.10;92.70;;;;;;5030612;28;20029;-75
2021/01/26 11:51:29;;;;;;;1.65;0.88;;;7.10;92.70;;;;;;5031221;28;20017;-74
2021/01/26 11:53:56;;;;;;;0.93;0.80;;;7.10;92.60;;;;;;5030596;28;20021;-75
2021/01/26 11:56:22;;;;;;;0.75;0.50;;;7.10;92.60;;;;;;5031541;28;20068;-74
2021/01/26 11:58:49;;;;;;;1.00;0.80;;;7.10;92.60;;;;;;5031442;28;20029;-74
2021/01/26 12:01:15;;;;;;;0.95;0.60;;;7.20;92.60;;;;;;5012734;28;20388;-74
2021/01/26 12:03:42;;;;;;;0.88;0.65;;;7.30;92.50;;;;;;5031034;28;20017;-74
2021/01/26 12:06:08;;;;;;;0.55;0.52;;;7.40;92.40;;;;;;5030729;28;20022;-74
2021/01/26 12:08:34;;;;;;;0.85;0.45;;;7.50;92.40;;;;;;5031338;28;20045;-74
2021/01/26 12:10:59;;;;;;;0.88;0.70;;;7.50;92.30;;;;;;5012896;28;20020;-75
2021/01/26 12:13:25;;;;;;;0.68;0.63;;;7.50;92.30;;;;;;5030899;28;20453;-74
2021/01/26 12:15:51;;;;;;;0.50;0.50;;;7.50;92.30;;;;;;5031195;28;20021;-74
2021/01/26 12:18:16;;;;;;;1.38;0.65;;;7.50;92.30;;;;;;5030282;28;20429;-74
2021/01/26 12:20:42;;;;;;;0.45;0.40;;;7.50;92.20;;;;;;5030765;28;20029;-74
2021/01/26 12:23:09;;;;;;;0.68;0.55;;;7.60;92.20;;;;;;5012684;28;20017;-74
2021/01/26 12:25:35;;;;;;;0.70;0.50;;;7.60;92.20;;;;;;5015905;28;20454;-74
2021/01/26 12:28:03;;;;;;;0.50;0.50;;;7.60;92.20;;;;;;5015791;28;20022;-74
2021/01/26 12:30:29;;;;;;;0.90;0.77;;;7.50;92.20;;;;;;5016594;28;20052;-74
2021/01/26 12:32:55;;;;;;;0.57;0.57;;;7.50;92.20;;;;;;5016748;28;20040;-75
2021/01/26 12:35:31;;;;;;;0.68;0.68;;;7.50;92.20;;;;;;5034004;28;20018;-74
2021/01/26 12:37:56;;;;;;;0.45;0.45;;;7.50;92.20;;;;;;5034416;28;20024;-74
2021/01/26 12:40:23;;;;;;;0.55;0.43;;;7.50;92.20;;;;;;5033759;28;20646;-74
2021/01/26 12:42:49;;;;;;;0.47;0.47;;;7.50;92.10;;;;;;5034406;28;20025;-74
2021/01/26 12:45:19;;;;;;;1.20;0.47;;;7.50;92.10;;;;;;5033605;28;20030;-75
2021/01/26 12:47:45;;;;;;;0.30;0.30;;;7.50;92.10;;;;;;5034085;28;20483;-74
2021/01/26 12:50:14;;;;;;;0.80;0.55;;;7.50;92.10;;;;;;5033573;28;20030;-75
2021/01/26 12:52:40;;;;;;;0.70;0.70;;;7.50;92.10;;;;;;5016030;28;20492;-75
2021/01/26 12:55:07;;;;;;;0.63;0.60;;;7.40;92.20;;;;;;5033074;28;20469;-75
2021/01/26 12:57:32;;;;;;;1.23;0.80;;;7.40;92.20;;;;;;5033803;28;20101;-75
2021/01/26 12:59:58;;;;;;;0.40;0.40;;;7.50;92.20;;;;;;5033963;28;20125;-74
2021/01/26 13:02:24;;;;;;;1.25;0.70;;;7.50;92.20;;;;;;5033852;28;20033;-75
2021/01/26 13:04:52;;;;;;;0.50;0.50;;;7.50;92.10;;;;;;5033867;28;20207;-74
2021/01/26 13:07:19;;;;;;;2.30;0.70;;;7.50;92.00;;;;;;5015262;28;20028;-74
2021/01/26 13:09:45;;;;;;;1.67;1.02;;;7.50;92.00;;;;;;5033936;28;20175;-74
2021/01/26 13:12:11;;;;;;;1.95;0.50;;;7.50;92.00;;;;;;5015226;28;20468;-74
2021/01/26 13:14:39;;;;;;;0.77;0.60;;;7.60;92.00;;;;;;5015780;28;20036;-74
2021/01/26 13:17:04;;;;;;;0.85;0.50;;;7.50;92.00;;;;;;5033306;28;20065;-74
2021/01/26 13:19:31;;;;;;;0.70;0.70;;;7.50;91.90;;;;;;5015548;28;20480;-74
2021/01/26 13:21:57;;;;;;;0.77;0.77;;;7.50;91.90;;;;;;5033508;28;20052;-74
2021/01/26 13:24:23;;;;;;;1.05;0.73;;;7.40;92.00;;;;;;5032875;28;20026;-74
2021/01/26 13:26:48;;;;;;;0.45;0.45;;;7.40;92.00;;;;;;5033520;28;20030;-75
2021/01/26 13:29:14;;;;;;;0.50;0.50;;;7.40;92.00;;;;;;5032722;28;20131;-74